Weather at Ibiza Airport

Public forecast

Using degrees Celsius for public forecast. Weather courtesy of forecast.io.

Current aviation weather report (METAR) for Ibiza Airport

Report is more than 6 hours old.

2022/11/14 15:30 (retrieved 2 years ago)

LEIB 141530Z 23010KT 9999 FEW017 21/17 Q1018 NOSIG

Aviation forecast (TAF) for Ibiza Airport

Forecast is more than 12 hours old.

2023/02/22 21:00 (retrieved 1 year ago)

TAF LEIB 222000Z 2221/2321 VRB04KT 9999 BKN010 TX16/2312Z TN07/2306Z PROB40 TEMPO 2221/2309 3000 BR BKN005 PROB30 TEMPO 2221/2307 0600 FG VV001 BECMG 2307/2309 19012KT